createdAt,value
2018-01-03T00:00:19.094Z,5.75
2018-01-03T00:02:46.455Z,7.05
2018-01-03T00:05:13.865Z,5.85
2018-01-03T00:07:41.352Z,5.83
2018-01-03T00:10:15.875Z,5.70
2018-01-03T00:12:43.391Z,5.90
2018-01-03T00:15:10.802Z,5.40
2018-01-03T00:17:38.153Z,6.20
2018-01-03T00:20:05.549Z,6.15
2018-01-03T00:22:33.009Z,6.05
2018-01-03T00:25:00.623Z,6.65
2018-01-03T00:27:28.034Z,5.55
2018-01-03T00:30:16.706Z,6.10
2018-01-03T00:32:44.145Z,5.87
2018-01-03T00:35:11.594Z,4.30
2018-01-03T00:37:39.313Z,5.47
2018-01-03T00:40:06.735Z,5.10
2018-01-03T00:42:34.314Z,5.67
2018-01-03T00:45:02.062Z,4.90
2018-01-03T00:47:29.468Z,4.67
2018-01-03T00:49:57.673Z,5.73
2018-01-03T00:52:25.304Z,5.40
2018-01-03T00:54:52.694Z,4.70
2018-01-03T00:57:20.182Z,5.50
2018-01-03T00:59:54.926Z,4.75
2018-01-03T01:02:22.625Z,5.20
2018-01-03T01:04:50.536Z,4.37
2018-01-03T01:07:18.043Z,4.97
2018-01-03T01:09:45.459Z,4.83
2018-01-03T01:12:12.972Z,4.80
2018-01-03T01:14:40.745Z,4.20
2018-01-03T01:17:08.145Z,3.95
2018-01-03T01:19:37.085Z,3.87
2018-01-03T01:22:04.611Z,3.87
2018-01-03T01:24:32.027Z,3.60
2018-01-03T01:26:59.731Z,4.75
2018-01-03T01:29:27.089Z,4.20
2018-01-03T01:31:54.821Z,3.83
2018-01-03T01:34:23.779Z,3.60
2018-01-03T01:36:52.739Z,3.33
2018-01-03T01:39:27.358Z,3.70
2018-01-03T01:41:54.857Z,5.05
2018-01-03T01:44:23.302Z,3.37
2018-01-03T01:46:50.659Z,3.65
2018-01-03T01:49:19.697Z,3.40
2018-01-03T01:51:47.397Z,4.45
2018-01-03T01:54:15.546Z,4.13
2018-01-03T01:56:43.329Z,3.33
2018-01-03T01:59:11.788Z,3.27
2018-01-03T02:01:39.173Z,3.27
2018-01-03T02:04:06.580Z,2.87
2018-01-03T02:06:33.962Z,3.65
2018-01-03T02:09:01.395Z,2.13
2018-01-03T02:11:28.833Z,2.60
2018-01-03T02:13:56.192Z,1.70
2018-01-03T02:16:23.570Z,2.30
2018-01-03T02:18:51.018Z,2.55
2018-01-03T02:21:18.870Z,1.50
2018-01-03T02:23:46.535Z,1.87
2018-01-03T02:26:14.113Z,1.57
2018-01-03T02:28:41.530Z,1.30
2018-01-03T02:31:08.863Z,1.55
2018-01-03T02:33:36.278Z,1.60
2018-01-03T02:36:04.050Z,1.60
2018-01-03T02:38:31.409Z,1.40
2018-01-03T02:40:58.826Z,0.75
2018-01-03T02:43:26.210Z,1.20
2018-01-03T02:45:53.672Z,1.10
2018-01-03T02:48:21.334Z,1.10
2018-01-03T02:50:48.698Z,0.97
2018-01-03T02:53:16.454Z,1.00
2018-01-03T02:55:43.824Z,0.97
2018-01-03T02:58:11.184Z,1.07
2018-01-03T03:00:38.564Z,0.90
2018-01-03T03:03:06.036Z,0.73
2018-01-03T03:05:33.591Z,0.85
2018-01-03T03:08:00.953Z,0.70
2018-01-03T03:10:28.449Z,0.55
2018-01-03T03:12:55.809Z,0.70
2018-01-03T03:15:23.178Z,0.70
2018-01-03T03:17:50.677Z,0.80
2018-01-03T03:20:18.024Z,1.15
2018-01-03T03:22:45.360Z,0.50
2018-01-03T03:25:12.901Z,0.70
2018-01-03T03:27:40.234Z,0.80
2018-01-03T03:30:07.754Z,0.65
2018-01-03T03:32:35.278Z,0.60
2018-01-03T03:35:02.641Z,0.67
2018-01-03T03:37:30.093Z,0.57
2018-01-03T03:40:04.968Z,0.50
2018-01-03T03:45:05.689Z,0.50
2018-01-03T03:47:33.093Z,0.75
2018-01-03T04:04:17.334Z,0.50
2018-01-03T04:06:44.737Z,0.50
2018-01-03T04:09:12.116Z,0.50
2018-01-03T04:11:39.516Z,0.50
2018-01-03T04:14:06.850Z,0.70
2018-01-03T04:16:34.294Z,0.50
2018-01-03T04:19:01.752Z,0.50
2018-01-03T04:21:29.305Z,0.40
2018-01-03T04:23:56.642Z,0.75
2018-01-03T04:26:24.111Z,0.45
2018-01-03T04:28:58.737Z,0.60
2018-01-03T04:31:26.120Z,0.40
2018-01-03T04:33:53.652Z,0.60
2018-01-03T04:36:21.026Z,0.40
2018-01-03T04:38:48.510Z,1.40
2018-01-03T04:41:16.166Z,0.93
2018-01-03T04:43:43.558Z,1.50
2018-01-03T04:46:11.806Z,1.65
2018-01-03T04:48:39.257Z,1.50
2018-01-03T04:51:06.710Z,2.70
2018-01-03T04:53:34.138Z,24.03
2018-01-03T04:56:01.536Z,6.77
2018-01-03T04:58:28.962Z,3.15
2018-01-03T05:00:56.426Z,2.45
2018-01-03T05:03:24.289Z,2.25
2018-01-03T05:05:51.676Z,2.35
2018-01-03T05:08:19.071Z,2.10
2018-01-03T05:10:46.703Z,2.80
2018-01-03T05:13:14.151Z,2.20
2018-01-03T05:15:42.234Z,1.70
2018-01-03T05:18:09.700Z,2.30
2018-01-03T05:20:37.422Z,2.00
2018-01-03T05:23:04.875Z,2.73
2018-01-03T05:25:32.337Z,2.70
2018-01-03T05:27:59.791Z,2.67
2018-01-03T05:30:27.226Z,3.25
2018-01-03T05:32:54.672Z,3.95
2018-01-03T05:35:22.097Z,5.03
2018-01-03T05:37:49.487Z,3.53
2018-01-03T05:40:16.950Z,3.70
2018-01-03T05:42:44.384Z,2.30
2018-01-03T05:45:11.774Z,3.90
2018-01-03T05:47:39.203Z,3.00
2018-01-03T05:50:14.362Z,4.63
2018-01-03T05:52:41.822Z,2.40
2018-01-03T05:55:09.249Z,2.50
2018-01-03T05:57:36.908Z,2.20
2018-01-03T06:00:04.383Z,2.47
2018-01-03T06:02:31.867Z,1.73
2018-01-03T06:04:59.266Z,2.90
2018-01-03T06:07:26.746Z,4.60
2018-01-03T06:12:54.743Z,5.75
2018-01-03T06:15:22.173Z,8.10
2018-01-03T06:17:49.566Z,5.57
2018-01-03T06:20:16.981Z,4.87
2018-01-03T06:22:44.414Z,4.27
2018-01-03T06:25:11.870Z,3.00
2018-01-03T06:27:39.399Z,4.35
2018-01-03T06:33:20.044Z,3.00
2018-01-03T06:35:47.477Z,4.75
2018-01-03T06:38:14.942Z,3.20
2018-01-03T06:40:42.389Z,3.80
2018-01-03T06:43:09.802Z,3.90
2018-01-03T06:45:37.297Z,2.00
2018-01-03T06:48:04.689Z,2.20
2018-01-03T06:50:32.169Z,1.80
2018-01-03T06:53:00.101Z,2.60
2018-01-03T06:55:27.571Z,2.90
2018-01-03T06:57:55.036Z,2.20
2018-01-03T07:00:24.100Z,1.93
2018-01-03T07:02:52.792Z,2.53
2018-01-03T07:05:20.640Z,1.40
2018-01-03T07:07:48.581Z,2.20
2018-01-03T07:10:16.441Z,2.10
2018-01-03T07:12:44.657Z,1.70
2018-01-03T07:15:12.502Z,1.83
2018-01-03T07:17:40.171Z,2.00
2018-01-03T07:20:08.287Z,1.00
2018-01-03T07:22:36.528Z,1.37
2018-01-03T07:25:04.629Z,1.55
2018-01-03T07:27:32.369Z,1.10
2018-01-03T07:30:00.316Z,1.33
2018-01-03T07:32:28.075Z,1.57
2018-01-03T07:34:56.981Z,1.60
2018-01-03T07:37:25.228Z,1.60
2018-01-03T07:39:53.149Z,1.87
2018-01-03T07:42:20.916Z,2.30
2018-01-03T07:44:48.850Z,1.40
2018-01-03T07:47:16.706Z,1.70
2018-01-03T07:49:44.227Z,1.00
2018-01-03T07:52:11.754Z,1.67
2018-01-03T07:54:39.608Z,1.00
2018-01-03T07:57:07.604Z,1.45
2018-01-03T07:59:35.424Z,0.80
2018-01-03T08:02:02.991Z,1.33
2018-01-03T08:04:30.973Z,1.80
2018-01-03T08:06:58.983Z,1.97
2018-01-03T08:09:26.509Z,1.50
2018-01-03T08:11:54.559Z,0.95
2018-01-03T08:14:22.519Z,1.30
2018-01-03T08:16:50.009Z,1.00
2018-01-03T08:19:17.435Z,1.20
2018-01-03T08:21:45.906Z,1.10
2018-01-03T08:24:13.481Z,1.55
2018-01-03T08:26:41.055Z,1.43
2018-01-03T08:29:16.691Z,1.20
2018-01-03T08:31:44.142Z,2.40
2018-01-03T08:34:12.160Z,1.20
2018-01-03T08:36:39.744Z,1.40
2018-01-03T08:39:07.473Z,1.33
2018-01-03T08:41:35.522Z,1.00
2018-01-03T08:44:03.020Z,1.30
2018-01-03T08:46:31.062Z,1.53
2018-01-03T08:48:59.366Z,1.05
2018-01-03T08:51:26.973Z,1.10
2018-01-03T08:53:55.007Z,1.40
2018-01-03T08:56:22.609Z,1.13
2018-01-03T08:58:50.402Z,1.00
2018-01-03T09:01:18.119Z,1.50
2018-01-03T09:03:45.945Z,1.37
2018-01-03T09:06:13.450Z,1.20
2018-01-03T09:11:33.280Z,0.85
2018-01-03T09:14:00.938Z,1.13
2018-01-03T09:16:28.448Z,1.27
2018-01-03T09:18:55.866Z,0.80
2018-01-03T09:21:23.347Z,1.25
2018-01-03T09:23:50.832Z,1.40
2018-01-03T09:26:18.362Z,1.45
2018-01-03T09:28:45.855Z,1.55
2018-01-03T09:31:13.328Z,1.55
2018-01-03T09:33:40.802Z,3.33
2018-01-03T09:36:08.241Z,1.40
2018-01-03T09:38:35.678Z,2.55
2018-01-03T09:41:03.238Z,1.60
2018-01-03T09:43:30.780Z,1.33
2018-01-03T09:45:58.330Z,1.15
2018-01-03T09:48:25.951Z,1.60
2018-01-03T09:50:53.343Z,1.60
2018-01-03T09:53:20.989Z,1.50
2018-01-03T09:55:48.494Z,1.37
2018-01-03T09:58:15.910Z,2.40
2018-01-03T10:00:43.444Z,1.47
2018-01-03T10:03:10.867Z,1.70
2018-01-03T10:05:38.316Z,1.30
2018-01-03T10:08:05.705Z,1.00
2018-01-03T10:10:33.226Z,0.97
2018-01-03T10:13:00.709Z,1.10
2018-01-03T10:15:28.412Z,1.60
2018-01-03T10:17:56.138Z,1.10
2018-01-03T10:20:23.620Z,2.00
2018-01-03T10:22:51.079Z,1.63
2018-01-03T10:25:18.482Z,1.50
2018-01-03T10:27:45.942Z,1.35
2018-01-03T10:30:13.524Z,1.00
2018-01-03T10:32:40.931Z,1.23
2018-01-03T10:35:08.566Z,1.10
2018-01-03T10:37:35.959Z,1.30
2018-01-03T10:40:03.464Z,1.80
2018-01-03T10:42:31.084Z,1.57
2018-01-03T10:44:58.617Z,1.05
2018-01-03T10:47:26.003Z,1.30
2018-01-03T10:49:53.528Z,1.40
2018-01-03T10:52:20.979Z,1.55
2018-01-03T10:54:48.459Z,1.17
2018-01-03T10:57:15.965Z,1.10
2018-01-03T10:59:43.505Z,1.57
2018-01-03T11:02:11.237Z,1.47
2018-01-03T11:04:38.756Z,1.70
2018-01-03T11:07:06.214Z,1.50
2018-01-03T11:09:34.317Z,1.25
2018-01-03T11:12:01.892Z,1.73
2018-01-03T11:14:29.457Z,0.90
2018-01-03T11:16:57.824Z,1.20
2018-01-03T11:19:25.455Z,1.25
2018-01-03T11:21:53.051Z,2.00
2018-01-03T11:24:20.773Z,1.20
2018-01-03T11:26:48.280Z,1.70
2018-01-03T11:29:16.041Z,1.10
2018-01-03T11:31:43.555Z,1.60
2018-01-03T11:34:11.057Z,1.53
2018-01-03T11:36:38.794Z,1.40
2018-01-03T11:39:06.255Z,1.80
2018-01-03T11:41:33.691Z,1.40
2018-01-03T11:44:01.130Z,1.57
2018-01-03T11:46:28.631Z,1.23
2018-01-03T11:48:56.041Z,1.37
2018-01-03T11:51:23.749Z,1.57
2018-01-03T11:53:51.245Z,1.73
2018-01-03T11:56:18.675Z,1.13
2018-01-03T11:58:46.337Z,1.40
2018-01-03T12:01:13.855Z,1.20
2018-01-03T12:03:41.426Z,1.47
2018-01-03T12:06:08.904Z,0.90
2018-01-03T12:08:36.322Z,1.47
2018-01-03T12:11:03.822Z,2.17
2018-01-03T12:13:31.262Z,2.47
2018-01-03T12:15:58.647Z,2.40
2018-01-03T12:18:26.038Z,1.20
2018-01-03T12:20:53.583Z,1.70
2018-01-03T12:23:21.236Z,1.70
2018-01-03T12:25:48.658Z,1.27
2018-01-03T12:28:16.131Z,1.97
2018-01-03T12:30:43.724Z,1.70
2018-01-03T12:33:11.201Z,1.95
2018-01-03T12:35:38.735Z,1.77
2018-01-03T12:38:06.290Z,1.83
2018-01-03T12:40:34.094Z,1.10
2018-01-03T12:43:01.611Z,1.15
2018-01-03T12:45:29.140Z,1.77
2018-01-03T12:47:56.662Z,1.60
2018-01-03T12:50:26.533Z,1.93
2018-01-03T12:52:54.579Z,1.70
2018-01-03T12:55:22.411Z,2.00
2018-01-03T12:57:50.228Z,1.67
2018-01-03T13:00:18.120Z,1.50
2018-01-03T13:02:45.663Z,1.80
2018-01-03T13:05:13.107Z,2.20
2018-01-03T13:07:40.627Z,1.60
2018-01-03T13:10:10.676Z,1.83
2018-01-03T13:12:38.139Z,2.15
2018-01-03T13:15:05.642Z,1.95
2018-01-03T13:17:34.075Z,1.40
2018-01-03T13:20:01.787Z,1.50
2018-01-03T13:22:29.293Z,1.60
2018-01-03T13:24:56.790Z,2.10
2018-01-03T13:27:24.342Z,1.90
2018-01-03T13:29:51.766Z,1.80
2018-01-03T13:32:19.327Z,1.85
2018-01-03T13:34:46.737Z,1.10
2018-01-03T13:37:14.367Z,1.50
2018-01-03T13:39:41.824Z,1.43
2018-01-03T13:42:09.304Z,1.50
2018-01-03T13:44:36.822Z,1.17
2018-01-03T13:47:04.222Z,1.60
2018-01-03T13:49:31.679Z,1.20
2018-01-03T13:51:59.449Z,1.77
2018-01-03T13:54:26.899Z,1.55
2018-01-03T13:56:54.370Z,1.55
2018-01-03T13:59:21.827Z,1.67
2018-01-03T14:01:49.297Z,1.60
2018-01-03T14:04:16.751Z,1.43
2018-01-03T14:06:44.877Z,2.25
2018-01-03T14:09:12.534Z,1.90
2018-01-03T14:11:40.762Z,2.00
2018-01-03T14:14:08.207Z,1.63
2018-01-03T14:16:35.681Z,2.13
2018-01-03T14:19:03.215Z,1.60
2018-01-03T14:21:30.705Z,1.70
2018-01-03T14:23:58.179Z,1.50
2018-01-03T14:26:25.877Z,1.77
2018-01-03T14:28:53.461Z,2.30
2018-01-03T14:31:20.923Z,1.75
2018-01-03T14:33:48.403Z,1.40
2018-01-03T14:36:15.813Z,2.45
2018-01-03T14:38:49.011Z,1.70
2018-01-03T14:41:16.560Z,2.00
2018-01-03T14:43:44.022Z,2.03
2018-01-03T14:46:11.427Z,3.10
2018-01-03T14:48:38.904Z,2.97
2018-01-03T14:51:06.412Z,2.25
2018-01-03T14:53:34.104Z,2.10
2018-01-03T14:56:01.531Z,1.60
2018-01-03T14:58:29.074Z,2.30
2018-01-03T15:00:56.705Z,1.70
2018-01-03T15:03:24.219Z,2.80
2018-01-03T15:05:52.954Z,2.40
2018-01-03T15:08:20.404Z,2.40
2018-01-03T15:10:47.835Z,2.40
2018-01-03T15:15:48.663Z,2.47
2018-01-03T15:18:16.192Z,2.10
2018-01-03T15:20:43.596Z,2.20
2018-01-03T15:23:11.343Z,2.10
2018-01-03T15:25:38.849Z,2.35
2018-01-03T15:28:06.303Z,1.80
2018-01-03T15:30:33.699Z,2.13
2018-01-03T15:33:01.160Z,2.75
2018-01-03T15:35:28.655Z,3.10
2018-01-03T15:37:56.100Z,4.20
2018-01-03T15:40:23.671Z,6.13
2018-01-03T15:42:51.262Z,9.10
2018-01-03T15:45:18.678Z,12.70
2018-01-03T15:47:46.249Z,13.20
2018-01-03T15:50:13.686Z,15.60
2018-01-03T15:52:41.150Z,18.97
2018-01-03T15:55:08.559Z,20.95
2018-01-03T15:57:35.938Z,19.87
2018-01-03T16:00:03.403Z,24.15
2018-01-03T16:02:31.099Z,21.57
2018-01-03T16:04:58.603Z,25.15
2018-01-03T16:07:26.019Z,23.93
2018-01-03T16:09:53.479Z,22.20
2018-01-03T16:12:20.918Z,24.55
2018-01-03T16:14:48.303Z,23.55
2018-01-03T16:17:15.787Z,21.45
2018-01-03T16:19:43.304Z,19.20
2018-01-03T16:22:10.977Z,19.27
2018-01-03T16:24:38.499Z,19.90
2018-01-03T16:27:05.921Z,19.10
2018-01-03T16:29:33.480Z,18.83
2018-01-03T16:32:00.930Z,19.10
2018-01-03T16:34:28.472Z,18.90
2018-01-03T16:36:55.851Z,19.13
2018-01-03T16:39:23.405Z,18.93
2018-01-03T16:41:50.838Z,19.90
2018-01-03T16:44:18.464Z,18.73
2018-01-03T16:46:45.905Z,19.05
2018-01-03T16:49:13.575Z,21.00
2018-01-03T16:51:41.098Z,22.40
2018-01-03T16:54:08.572Z,25.23
2018-01-03T16:56:36.118Z,24.53
2018-01-03T16:59:03.599Z,24.20
2018-01-03T17:01:31.172Z,24.07
2018-01-03T17:03:58.744Z,26.50
2018-01-03T17:06:26.357Z,25.63
2018-01-03T17:08:53.870Z,22.47
2018-01-03T17:11:21.697Z,23.87
2018-01-03T17:13:49.145Z,22.90
2018-01-03T17:16:16.920Z,21.30
2018-01-03T17:18:44.518Z,20.70
2018-01-03T17:21:12.087Z,21.63
2018-01-03T17:23:39.907Z,19.63
2018-01-03T17:50:00.285Z,20.30
2018-01-03T17:53:45.110Z,19.90
2018-01-03T17:56:12.648Z,18.83
2018-01-03T17:58:40.262Z,18.07
2018-01-03T18:01:07.639Z,21.35
2018-01-03T18:03:35.369Z,19.90
2018-01-03T18:06:02.921Z,19.30
2018-01-03T18:08:31.227Z,22.60
2018-01-03T18:10:58.761Z,22.03
2018-01-03T18:13:26.826Z,23.83
2018-01-03T18:15:54.286Z,21.80
2018-01-03T18:18:21.706Z,20.20
2018-01-03T18:20:49.127Z,21.87
2018-01-03T18:23:17.335Z,21.20
2018-01-03T18:25:44.902Z,19.10
2018-01-03T18:28:12.308Z,19.53
2018-01-03T18:30:39.734Z,19.20
2018-01-03T18:33:07.304Z,20.60
2018-01-03T18:35:34.834Z,19.97
2018-01-03T18:38:02.274Z,19.93
2018-01-03T18:40:29.654Z,17.13
2018-01-03T18:42:57.084Z,18.60
2018-01-03T18:45:24.504Z,17.73
2018-01-03T18:47:51.863Z,17.93
2018-01-03T18:50:19.274Z,18.77
2018-01-03T18:52:46.652Z,17.30
2018-01-03T18:55:14.075Z,18.87
2018-01-03T18:57:41.564Z,18.75
2018-01-03T19:00:08.985Z,17.63
2018-01-03T19:02:36.406Z,17.00
2018-01-03T19:05:03.786Z,17.63
2018-01-03T19:07:31.209Z,19.60
2018-01-03T19:09:58.610Z,17.27
2018-01-03T19:12:26.019Z,16.95
2018-01-03T19:14:53.434Z,15.07
2018-01-03T19:17:21.014Z,16.07
2018-01-03T19:19:48.446Z,17.50
2018-01-03T19:22:15.996Z,17.70
2018-01-03T19:24:43.486Z,15.30
2018-01-03T19:27:10.865Z,16.77
2018-01-03T19:29:38.243Z,16.65
2018-01-03T19:32:05.707Z,15.40
2018-01-03T19:34:33.205Z,16.50
2018-01-03T19:37:00.587Z,15.50
2018-01-03T19:39:28.054Z,16.50
2018-01-03T19:41:55.461Z,16.93
2018-01-03T19:44:22.965Z,15.57
2018-01-03T19:46:50.335Z,15.35
2018-01-03T19:49:17.861Z,16.27
2018-01-03T19:51:45.259Z,18.25
2018-01-03T19:54:12.643Z,17.30
2018-01-03T19:56:40.130Z,16.43
2018-01-03T19:59:07.524Z,16.20
2018-01-03T20:01:34.917Z,16.60
2018-01-03T20:04:02.394Z,16.80
2018-01-03T20:06:29.785Z,16.50
2018-01-03T20:08:57.150Z,15.25
2018-01-03T20:11:24.672Z,16.30
2018-01-03T20:13:52.034Z,15.57
2018-01-03T20:16:19.401Z,15.80
2018-01-03T20:18:46.817Z,16.00
2018-01-03T20:21:14.179Z,16.75
2018-01-03T20:23:41.538Z,16.60
2018-01-03T20:26:08.937Z,14.30
2018-01-03T20:28:36.342Z,14.40
2018-01-03T20:31:03.742Z,16.40
2018-01-03T20:33:31.113Z,16.40
2018-01-03T20:35:58.509Z,15.80
2018-01-03T20:38:25.876Z,16.17
2018-01-03T20:40:53.293Z,15.30
2018-01-03T20:43:20.680Z,14.90
2018-01-03T20:45:48.052Z,14.10
2018-01-03T20:48:15.495Z,16.00
2018-01-03T20:50:42.881Z,15.77
2018-01-03T20:53:10.404Z,14.47
2018-01-03T20:55:37.838Z,15.97
2018-01-03T20:58:05.205Z,14.73
2018-01-03T21:00:32.605Z,15.33
2018-01-03T21:02:59.971Z,14.25
2018-01-03T21:05:27.386Z,14.65
2018-01-03T21:07:54.786Z,15.07
2018-01-03T21:10:22.191Z,16.13
2018-01-03T21:12:49.555Z,15.43
2018-01-03T21:15:16.983Z,14.70
2018-01-03T21:17:44.486Z,13.20
2018-01-03T21:20:11.885Z,14.75
2018-01-03T21:22:39.218Z,13.87
2018-01-03T21:25:06.621Z,15.65
2018-01-03T21:27:34.081Z,13.90
2018-01-03T21:30:01.430Z,14.43
2018-01-03T21:32:28.954Z,13.73
2018-01-03T21:34:56.369Z,14.30
2018-01-03T21:37:23.818Z,14.30
2018-01-03T21:39:51.388Z,14.10
2018-01-03T21:42:18.745Z,12.83
2018-01-03T21:44:46.204Z,14.33
2018-01-03T21:47:13.678Z,14.87
2018-01-03T21:49:41.033Z,14.20
2018-01-03T21:52:08.397Z,14.70
2018-01-03T21:54:35.802Z,13.10
2018-01-03T21:57:03.334Z,14.10
2018-01-03T21:59:30.858Z,13.80
2018-01-03T22:01:58.290Z,14.25
2018-01-03T22:04:25.702Z,11.80
2018-01-03T22:06:53.126Z,14.13
2018-01-03T22:09:20.562Z,14.67
2018-01-03T22:11:47.925Z,11.65
2018-01-03T22:14:15.358Z,12.80
2018-01-03T22:16:42.775Z,12.70
2018-01-03T22:19:10.154Z,13.33
2018-01-03T22:21:37.569Z,13.40
2018-01-03T22:24:04.934Z,13.30
2018-01-03T22:26:32.308Z,13.15
2018-01-03T22:28:59.714Z,13.80
2018-01-03T22:31:27.124Z,12.95
2018-01-03T22:33:54.485Z,14.60
2018-01-03T22:36:21.886Z,14.95
2018-01-03T22:38:49.250Z,14.70
2018-01-03T22:41:16.723Z,14.80
2018-01-03T22:43:44.166Z,14.50
2018-01-03T22:46:11.530Z,13.90
2018-01-03T22:48:38.967Z,14.43
2018-01-03T22:51:06.347Z,15.67
2018-01-03T22:53:33.738Z,15.00
2018-01-03T22:56:01.102Z,15.40
2018-01-03T22:58:28.510Z,15.40
2018-01-03T23:00:55.953Z,15.93
2018-01-03T23:03:23.358Z,17.10
2018-01-03T23:05:50.774Z,15.00
2018-01-03T23:08:18.174Z,16.47
2018-01-03T23:10:45.538Z,16.57
2018-01-03T23:13:13.071Z,16.45
2018-01-03T23:15:40.434Z,16.15
2018-01-03T23:18:07.808Z,16.87
2018-01-03T23:20:35.218Z,18.95
2018-01-03T23:23:02.592Z,17.60
2018-01-03T23:25:30.074Z,17.23
2018-01-03T23:27:57.563Z,18.45
2018-01-03T23:30:24.948Z,18.50
2018-01-03T23:35:25.787Z,19.35
2018-01-03T23:37:53.163Z,18.97
2018-01-03T23:40:20.653Z,17.50
2018-01-03T23:42:48.070Z,18.80
2018-01-03T23:45:15.458Z,17.60
2018-01-03T23:47:42.871Z,19.00
2018-01-03T23:50:10.274Z,18.23
2018-01-03T23:52:37.695Z,19.17
2018-01-03T23:55:05.114Z,17.25
2018-01-03T23:57:32.575Z,18.80
2018-01-03T23:59:59.955Z,16.50
